Time,TemperatureF,DewpointF,PressureIn,WindDirection,WindDirectionDegrees,WindSpeedMPH,WindSpeedGustMPH,Humidity,HourlyPrecipIn,Conditions,Clouds,dailyrainin,SoftwareType,DateUTC
2013-09-13 00:00:00,71.1,70.6,29.49,NE,45,0.0,0.7,98,0.01,,,0.17,fowsr,2013-09-13 04:00:00,
2013-09-13 00:05:00,71.1,70.6,29.48,NW,315,0.0,0.7,98,0.01,,,0.17,fowsr,2013-09-13 04:05:00,
2013-09-13 00:10:00,70.9,70.4,29.48,South,180,0.0,0.0,98,0.01,,,0.17,fowsr,2013-09-13 04:10:00,
2013-09-13 00:15:00,70.9,70.4,29.47,East,90,0.0,0.0,98,0.01,,,0.17,fowsr,2013-09-13 04:15:00,
2013-09-13 00:20:00,70.9,70.4,29.47,North,0,0.0,0.0,98,0.01,,,0.17,fowsr,2013-09-13 04:20:00,
2013-09-13 00:25:00,70.7,70.2,29.47,NW,315,0.0,0.0,98,0.01,,,0.17,fowsr,2013-09-13 04:25:00,
2013-09-13 00:30:00,70.7,70.2,29.47,NE,45,0.7,1.6,98,0.01,,,0.17,fowsr,2013-09-13 04:30:00,
2013-09-13 00:35:00,70.7,70.2,29.47,NE,45,0.0,0.0,98,0.01,,,0.17,fowsr,2013-09-13 04:35:00,
2013-09-13 00:40:00,70.9,70.4,29.47,North,0,0.7,1.6,98,0.01,,,0.17,fowsr,2013-09-13 04:40:00,
2013-09-13 00:45:00,70.9,70.4,29.47,North,0,1.6,3.1,98,0.01,,,0.17,fowsr,2013-09-13 04:45:00,
2013-09-13 00:50:00,71.1,70.6,29.46,North,0,0.7,2.2,98,0.01,,,0.17,fowsr,2013-09-13 04:50:00,
2013-09-13 00:55:00,71.1,70.6,29.47,NE,45,1.6,2.2,98,0.01,,,0.17,fowsr,2013-09-13 04:55:00,
2013-09-13 01:00:00,71.1,70.6,29.47,NE,45,0.0,1.6,98,0.01,,,0.17,fowsr,2013-09-13 05:00:00,
2013-09-13 01:05:00,71.1,70.6,29.46,NE,45,0.7,3.1,98,0.00,,,0.17,fowsr,2013-09-13 05:05:00,
2013-09-13 01:10:00,71.2,70.8,29.46,North,0,0.0,1.6,98,0.00,,,0.17,fowsr,2013-09-13 05:10:00,
2013-09-13 01:15:00,71.2,70.8,29.47,NE,45,2.2,4.5,98,0.00,,,0.17,fowsr,2013-09-13 05:15:00,
2013-09-13 01:20:00,71.2,70.8,29.47,NE,45,1.6,4.5,98,0.00,,,0.17,fowsr,2013-09-13 05:20:00,
2013-09-13 01:25:00,71.1,70.6,29.47,NE,45,2.2,5.4,98,0.00,,,0.17,fowsr,2013-09-13 05:25:00,
2013-09-13 01:30:00,71.1,70.6,29.47,North,0,3.1,4.5,98,0.00,,,0.17,fowsr,2013-09-13 05:30:00,
2013-09-13 01:35:00,71.1,70.6,29.47,NE,45,1.6,3.1,98,0.00,,,0.17,fowsr,2013-09-13 05:35:00,
2013-09-13 01:40:00,70.9,70.4,29.47,NE,45,3.8,8.3,98,0.00,,,0.17,fowsr,2013-09-13 05:40:00,
2013-09-13 01:45:00,70.9,70.4,29.47,North,0,3.1,5.4,98,0.00,,,0.17,fowsr,2013-09-13 05:45:00,
2013-09-13 01:50:00,70.9,70.4,29.47,East,90,1.6,3.1,98,0.00,,,0.17,fowsr,2013-09-13 05:50:00,
2013-09-13 01:55:00,70.9,70.4,29.47,East,90,3.8,6.9,98,0.00,,,0.17,fowsr,2013-09-13 05:55:00,
2013-09-13 02:00:00,70.9,70.4,29.46,NE,45,2.2,3.1,98,0.00,,,0.17,fowsr,2013-09-13 06:00:00,
2013-09-13 02:05:00,70.7,70.2,29.45,NE,45,0.0,0.7,98,0.00,,,0.17,fowsr,2013-09-13 06:05:00,
2013-09-13 02:10:00,70.7,70.2,29.45,NE,45,1.6,3.1,98,0.00,,,0.17,fowsr,2013-09-13 06:10:00,
2013-09-13 02:15:00,70.7,70.2,29.46,SE,135,1.6,3.8,98,0.00,,,0.17,fowsr,2013-09-13 06:15:00,
2013-09-13 02:20:00,70.7,70.2,29.46,North,0,1.6,3.8,98,0.00,,,0.17,fowsr,2013-09-13 06:20:00,
2013-09-13 02:25:00,70.7,70.2,29.46,NW,315,2.2,3.8,98,0.00,,,0.17,fowsr,2013-09-13 06:25:00,
2013-09-13 02:30:00,70.7,70.2,29.45,NE,45,1.6,3.1,98,0.00,,,0.17,fowsr,2013-09-13 06:30:00,
2013-09-13 02:35:00,70.7,70.2,29.45,NE,45,3.8,4.5,98,0.00,,,0.17,fowsr,2013-09-13 06:35:00,
2013-09-13 02:40:00,70.7,70.2,29.45,NE,45,3.1,5.4,98,0.00,,,0.17,fowsr,2013-09-13 06:40:00,
2013-09-13 02:45:00,70.9,70.4,29.44,North,0,2.2,6.0,98,0.00,,,0.17,fowsr,2013-09-13 06:45:00,
2013-09-13 02:50:00,70.9,70.4,29.44,NE,45,0.0,0.7,98,0.00,,,0.17,fowsr,2013-09-13 06:50:00,
2013-09-13 02:55:00,70.9,70.4,29.44,East,90,3.1,4.5,98,0.00,,,0.17,fowsr,2013-09-13 06:55:00,
2013-09-13 03:00:00,70.9,70.4,29.44,NE,45,2.2,5.4,98,0.00,,,0.17,fowsr,2013-09-13 07:00:00,
2013-09-13 03:05:00,70.9,70.4,29.44,East,90,0.0,1.6,98,0.00,,,0.17,fowsr,2013-09-13 07:05:00,
2013-09-13 03:10:00,70.9,70.4,29.44,NE,45,1.6,2.2,98,0.00,,,0.17,fowsr,2013-09-13 07:10:00,
2013-09-13 03:15:00,70.9,70.4,29.44,North,0,2.2,3.1,98,0.00,,,0.17,fowsr,2013-09-13 07:15:00,
2013-09-13 03:20:00,71.1,70.6,29.44,NE,45,2.2,3.8,98,0.00,,,0.17,fowsr,2013-09-13 07:20:00,
2013-09-13 03:25:00,71.1,70.6,29.43,East,90,3.1,4.5,98,0.00,,,0.17,fowsr,2013-09-13 07:25:00,
2013-09-13 03:30:00,71.2,70.8,29.44,East,90,1.6,3.1,98,0.00,,,0.17,fowsr,2013-09-13 07:30:00,
2013-09-13 03:35:00,71.2,70.8,29.43,NE,45,3.1,5.4,98,0.00,,,0.17,fowsr,2013-09-13 07:35:00,
2013-09-13 03:40:00,71.4,71.0,29.43,NE,45,2.2,3.8,98,0.00,,,0.17,fowsr,2013-09-13 07:40:00,
2013-09-13 03:45:00,71.4,71.0,29.43,East,90,0.7,1.6,98,0.00,,,0.17,fowsr,2013-09-13 07:45:00,
2013-09-13 03:50:00,71.6,70.9,29.43,NE,45,3.1,6.0,97,0.00,,,0.17,fowsr,2013-09-13 07:50:00,
2013-09-13 03:55:00,71.6,70.9,29.43,East,90,3.1,4.5,97,0.00,,,0.17,fowsr,2013-09-13 07:55:00,
2013-09-13 04:00:00,71.6,70.9,29.43,East,90,2.2,3.8,97,0.00,,,0.17,fowsr,2013-09-13 08:00:00,
2013-09-13 04:05:00,71.8,71.1,29.43,SE,135,1.6,3.1,97,0.00,,,0.17,fowsr,2013-09-13 08:05:00,
2013-09-13 04:15:00,71.8,71.1,29.43,East,90,1.6,3.8,97,0.00,,,0.17,fowsr,2013-09-13 08:15:00,
2013-09-13 04:20:00,71.8,71.1,29.43,NE,45,3.8,6.0,97,0.00,,,0.17,fowsr,2013-09-13 08:20:00,
2013-09-13 04:30:00,71.8,71.1,29.43,East,90,0.7,3.1,97,0.00,,,0.17,fowsr,2013-09-13 08:30:00,
2013-09-13 04:35:00,71.8,71.1,29.43,East,90,3.1,4.5,97,0.00,,,0.17,fowsr,2013-09-13 08:35:00,
2013-09-13 04:40:00,71.8,71.1,29.43,SE,135,4.5,7.6,97,0.00,,,0.17,fowsr,2013-09-13 08:40:00,
2013-09-13 04:45:00,71.8,71.1,29.43,NE,45,3.1,6.9,97,0.00,,,0.17,fowsr,2013-09-13 08:45:00,
2013-09-13 04:50:00,72.0,71.3,29.44,East,90,2.2,4.5,97,0.00,,,0.17,fowsr,2013-09-13 08:50:00,
2013-09-13 04:55:00,72.0,71.3,29.43,East,90,3.8,6.0,97,0.00,,,0.17,fowsr,2013-09-13 08:55:00,
2013-09-13 05:00:00,72.0,71.3,29.43,SE,135,1.6,2.2,97,0.00,,,0.17,fowsr,2013-09-13 09:00:00,
2013-09-13 05:05:00,72.1,71.4,29.43,ENE,67,3.8,6.9,97,0.00,,,0.17,fowsr,2013-09-13 09:05:00,
2013-09-13 05:10:00,72.1,71.4,29.43,NW,315,2.2,4.5,97,0.00,,,0.17,fowsr,2013-09-13 09:10:00,
2013-09-13 05:15:00,72.1,71.4,29.43,NE,45,1.6,3.8,97,0.00,,,0.17,fowsr,2013-09-13 09:15:00,
2013-09-13 05:20:00,72.1,71.4,29.43,East,90,2.2,3.8,97,0.00,,,0.17,fowsr,2013-09-13 09:20:00,
2013-09-13 05:25:00,72.1,71.4,29.43,NE,45,1.6,2.2,97,0.00,,,0.17,fowsr,2013-09-13 09:25:00,
2013-09-13 05:30:00,72.1,71.4,29.43,NE,45,1.6,4.5,97,0.00,,,0.17,fowsr,2013-09-13 09:30:00,
2013-09-13 05:35:00,72.1,71.4,29.43,East,90,1.6,6.9,97,0.00,,,0.17,fowsr,2013-09-13 09:35:00,
2013-09-13 05:40:00,72.1,71.4,29.43,North,0,0.7,1.6,97,0.00,,,0.17,fowsr,2013-09-13 09:40:00,
2013-09-13 05:45:00,72.1,71.2,29.43,SE,135,3.1,5.4,96,0.00,,,0.17,fowsr,2013-09-13 09:45:00,
2013-09-13 05:50:00,72.1,71.2,29.43,SE,135,1.6,5.4,96,0.00,,,0.17,fowsr,2013-09-13 09:50:00,
2013-09-13 05:55:00,72.1,71.2,29.43,East,90,3.8,6.0,96,0.00,,,0.17,fowsr,2013-09-13 09:55:00,
2013-09-13 06:00:00,72.1,71.2,29.43,SW,225,2.2,3.1,96,0.00,,,0.17,fowsr,2013-09-13 10:00:00,
2013-09-13 06:05:00,72.1,71.2,29.44,WSW,247,2.2,6.0,96,0.00,,,0.17,fowsr,2013-09-13 10:05:00,
2013-09-13 06:10:00,72.1,71.2,29.44,SE,135,1.6,4.5,96,0.00,,,0.17,fowsr,2013-09-13 10:10:00,
2013-09-13 06:15:00,72.1,71.2,29.44,East,90,1.6,3.8,96,0.00,,,0.17,fowsr,2013-09-13 10:15:00,
2013-09-13 06:20:00,72.0,71.0,29.44,South,180,3.1,8.3,96,0.00,,,0.17,fowsr,2013-09-13 10:20:00,
2013-09-13 06:25:00,72.0,71.0,29.44,North,0,2.2,4.5,96,0.00,,,0.17,fowsr,2013-09-13 10:25:00,
2013-09-13 06:30:00,72.0,70.8,29.44,SW,225,0.7,2.2,95,0.00,,,0.17,fowsr,2013-09-13 10:30:00,
2013-09-13 06:40:00,72.0,70.8,29.44,SE,135,3.1,6.0,95,0.00,,,0.17,fowsr,2013-09-13 10:40:00,
2013-09-13 06:45:00,72.0,70.8,29.44,SW,225,2.2,6.0,95,0.00,,,0.17,fowsr,2013-09-13 10:45:00,
2013-09-13 06:50:00,72.0,70.8,29.44,East,90,2.2,8.3,95,0.00,,,0.17,fowsr,2013-09-13 10:50:00,
2013-09-13 06:55:00,72.0,70.5,29.44,NW,315,2.2,5.4,94,0.00,,,0.17,fowsr,2013-09-13 10:55:00,
2013-09-13 07:00:00,72.0,70.5,29.44,NE,45,1.6,3.8,94,0.00,,,0.17,fowsr,2013-09-13 11:00:00,
2013-09-13 07:05:00,72.0,70.5,29.44,SE,135,0.7,3.1,94,0.00,,,0.17,fowsr,2013-09-13 11:05:00,
2013-09-13 07:10:00,72.0,70.5,29.44,SE,135,3.8,7.6,94,0.00,,,0.17,fowsr,2013-09-13 11:10:00,
2013-09-13 07:15:00,72.1,70.7,29.45,North,0,0.7,3.8,94,0.00,,,0.17,fowsr,2013-09-13 11:15:00,
2013-09-13 07:20:00,72.0,70.3,29.45,NW,315,1.6,3.1,93,0.00,,,0.17,fowsr,2013-09-13 11:20:00,
2013-09-13 07:25:00,72.1,70.5,29.45,SE,135,0.7,1.6,93,0.00,,,0.17,fowsr,2013-09-13 11:25:00,
2013-09-13 07:30:00,72.1,70.5,29.45,East,90,2.2,5.4,93,0.00,,,0.17,fowsr,2013-09-13 11:30:00,
2013-09-13 07:35:00,72.1,70.2,29.46,East,90,1.6,3.1,92,0.00,,,0.17,fowsr,2013-09-13 11:35:00,
2013-09-13 07:40:00,72.3,70.1,29.46,SSE,157,2.2,3.8,91,0.00,,,0.17,fowsr,2013-09-13 11:40:00,
2013-09-13 07:45:00,72.5,70.3,29.46,North,0,0.7,3.1,91,0.00,,,0.17,fowsr,2013-09-13 11:45:00,
2013-09-13 07:50:00,72.5,70.3,29.46,East,90,3.1,6.9,91,0.00,,,0.17,fowsr,2013-09-13 11:50:00,
2013-09-13 07:55:00,72.5,70.3,29.46,West,270,3.1,5.4,91,0.00,,,0.17,fowsr,2013-09-13 11:55:00,
2013-09-13 08:00:00,72.3,69.9,29.46,South,180,5.4,9.2,90,0.00,,,0.17,fowsr,2013-09-13 12:00:00,
2013-09-13 08:05:00,72.3,69.9,29.45,South,180,1.6,4.5,90,0.00,,,0.17,fowsr,2013-09-13 12:05:00,
2013-09-13 08:10:00,72.5,70.0,29.46,NE,45,3.8,6.9,90,0.00,,,0.17,fowsr,2013-09-13 12:10:00,
2013-09-13 08:15:00,72.7,70.0,29.46,SE,135,1.6,3.8,89,0.00,,,0.17,fowsr,2013-09-13 12:15:00,
2013-09-13 08:20:00,72.9,70.1,29.46,East,90,3.8,6.9,89,0.00,,,0.17,fowsr,2013-09-13 12:20:00,
2013-09-13 08:25:00,73.0,69.8,29.46,SE,135,6.0,9.2,87,0.00,,,0.17,fowsr,2013-09-13 12:25:00,
2013-09-13 08:30:00,73.2,69.7,29.46,South,180,2.2,6.0,86,0.00,,,0.17,fowsr,2013-09-13 12:30:00,
2013-09-13 08:35:00,73.6,70.1,29.46,SE,135,1.6,4.5,86,0.00,,,0.17,fowsr,2013-09-13 12:35:00,
2013-09-13 08:40:00,73.8,70.0,29.46,South,180,3.1,7.6,85,0.00,,,0.17,fowsr,2013-09-13 12:40:00,
2013-09-13 08:45:00,73.9,70.1,29.46,South,180,3.1,6.0,85,0.00,,,0.17,fowsr,2013-09-13 12:45:00,
2013-09-13 08:50:00,73.6,69.8,29.46,SE,135,2.2,4.5,85,0.00,,,0.17,fowsr,2013-09-13 12:50:00,
2013-09-13 08:55:00,73.2,68.9,29.46,NE,45,2.2,4.5,83,0.00,,,0.17,fowsr,2013-09-13 12:55:00,
2013-09-13 09:00:00,73.0,69.0,29.46,East,90,3.1,4.5,84,0.00,,,0.17,fowsr,2013-09-13 13:00:00,
2013-09-13 09:05:00,72.9,68.8,29.47,East,90,2.2,6.9,84,0.00,,,0.17,fowsr,2013-09-13 13:05:00,
2013-09-13 09:10:00,73.0,69.0,29.46,NE,45,3.8,5.4,84,0.00,,,0.17,fowsr,2013-09-13 13:10:00,
2013-09-13 09:15:00,73.6,69.5,29.47,NE,45,5.4,7.6,84,0.00,,,0.17,fowsr,2013-09-13 13:15:00,
2013-09-13 09:20:00,73.9,69.6,29.47,North,0,2.2,6.0,83,0.00,,,0.17,fowsr,2013-09-13 13:20:00,
2013-09-13 09:25:00,73.8,69.1,29.47,West,270,2.2,3.8,82,0.00,,,0.17,fowsr,2013-09-13 13:25:00,
2013-09-13 09:30:00,73.4,69.1,29.46,South,180,3.8,6.0,83,0.00,,,0.17,fowsr,2013-09-13 13:30:00,
2013-09-13 09:35:00,73.2,68.6,29.47,West,270,4.5,6.9,82,0.00,,,0.17,fowsr,2013-09-13 13:35:00,
2013-09-13 09:40:00,73.2,68.9,29.46,NE,45,3.1,5.4,83,0.00,,,0.17,fowsr,2013-09-13 13:40:00,
2013-09-13 09:45:00,73.0,68.7,29.47,SE,135,2.2,3.8,83,0.00,,,0.17,fowsr,2013-09-13 13:45:00,
2013-09-13 09:50:00,73.0,68.7,29.47,South,180,3.1,4.5,83,0.00,,,0.17,fowsr,2013-09-13 13:50:00,
2013-09-13 09:55:00,72.9,68.5,29.47,SE,135,2.2,4.5,83,0.00,,,0.17,fowsr,2013-09-13 13:55:00,
2013-09-13 10:00:00,72.9,68.5,29.47,East,90,2.2,5.4,83,0.00,,,0.17,fowsr,2013-09-13 14:00:00,
2013-09-13 10:05:00,72.7,68.6,29.47,West,270,3.1,5.4,84,0.00,,,0.17,fowsr,2013-09-13 14:05:00,
2013-09-13 10:10:00,72.5,68.5,29.47,NE,45,0.7,2.2,84,0.00,,,0.17,fowsr,2013-09-13 14:10:00,
2013-09-13 10:15:00,72.7,68.6,29.47,SE,135,2.2,3.8,84,0.00,,,0.17,fowsr,2013-09-13 14:15:00,
2013-09-13 10:20:00,72.9,68.8,29.47,NE,45,3.8,5.4,84,0.00,,,0.17,fowsr,2013-09-13 14:20:00,
2013-09-13 10:25:00,73.6,69.8,29.48,East,90,4.5,9.8,85,0.00,,,0.17,fowsr,2013-09-13 14:25:00,
2013-09-13 10:30:00,74.1,69.8,29.48,East,90,3.1,6.0,83,0.00,,,0.17,fowsr,2013-09-13 14:30:00,
2013-09-13 10:35:00,74.1,69.2,29.47,West,270,2.2,6.0,81,0.00,,,0.17,fowsr,2013-09-13 14:35:00,
2013-09-13 10:40:00,73.6,69.0,29.48,East,90,2.2,5.4,82,0.00,,,0.17,fowsr,2013-09-13 14:40:00,
2013-09-13 10:45:00,73.8,69.4,29.49,NE,45,0.7,2.2,83,0.00,,,0.17,fowsr,2013-09-13 14:45:00,
2013-09-13 10:50:00,73.9,69.3,29.48,East,90,3.8,7.6,82,0.00,,,0.17,fowsr,2013-09-13 14:50:00,
2013-09-13 10:55:00,73.6,68.7,29.49,SW,225,1.6,3.1,81,0.00,,,0.17,fowsr,2013-09-13 14:55:00,
2013-09-13 11:00:00,73.6,69.0,29.48,North,0,3.1,6.9,82,0.00,,,0.17,fowsr,2013-09-13 15:00:00,
2013-09-13 11:05:00,73.8,69.1,29.48,SW,225,2.2,6.0,82,0.00,,,0.17,fowsr,2013-09-13 15:05:00,
2013-09-13 11:10:00,73.9,69.3,29.49,East,90,1.6,3.8,82,0.00,,,0.17,fowsr,2013-09-13 15:10:00,
2013-09-13 11:15:00,74.3,69.4,29.49,NE,45,1.6,3.1,81,0.00,,,0.17,fowsr,2013-09-13 15:15:00,
2013-09-13 11:20:00,74.1,69.2,29.49,SW,225,3.8,4.5,81,0.00,,,0.17,fowsr,2013-09-13 15:20:00,
2013-09-13 11:25:00,73.8,69.1,29.49,NE,45,3.8,8.3,82,0.00,,,0.17,fowsr,2013-09-13 15:25:00,
2013-09-13 11:30:00,73.6,68.7,29.49,SW,225,3.1,6.0,81,0.00,,,0.17,fowsr,2013-09-13 15:30:00,
2013-09-13 11:35:00,73.6,68.4,29.49,East,90,2.2,3.8,80,0.00,,,0.17,fowsr,2013-09-13 15:35:00,
2013-09-13 11:40:00,73.4,68.2,29.49,South,180,4.5,9.2,80,0.00,,,0.17,fowsr,2013-09-13 15:40:00,
2013-09-13 11:45:00,73.2,68.1,29.49,WNW,292,1.6,3.1,80,0.00,,,0.17,fowsr,2013-09-13 15:45:00,
2013-09-13 11:50:00,73.4,68.2,29.49,SE,135,4.5,13.0,80,0.00,,,0.17,fowsr,2013-09-13 15:50:00,
2013-09-13 11:55:00,73.4,67.9,29.49,NE,45,6.0,9.8,79,0.00,,,0.17,fowsr,2013-09-13 15:55:00,
2013-09-13 12:00:00,73.9,68.2,29.49,NE,45,3.8,7.6,78,0.00,,,0.17,fowsr,2013-09-13 16:00:00,
2013-09-13 12:05:00,73.9,67.6,29.49,North,0,3.1,5.4,76,0.00,,,0.17,fowsr,2013-09-13 16:05:00,
2013-09-13 12:10:00,74.3,67.6,29.49,SSE,157,2.2,3.8,75,0.00,,,0.17,fowsr,2013-09-13 16:10:00,
2013-09-13 12:15:00,74.5,67.5,29.49,NE,45,4.5,11.4,74,0.00,,,0.17,fowsr,2013-09-13 16:15:00,
2013-09-13 12:20:00,74.7,67.7,29.49,NW,315,3.1,5.4,74,0.00,,,0.17,fowsr,2013-09-13 16:20:00,
2013-09-13 12:25:00,75.0,67.1,29.49,East,90,3.8,6.0,71,0.00,,,0.17,fowsr,2013-09-13 16:25:00,
2013-09-13 12:30:00,75.0,67.4,29.49,North,0,3.1,9.2,72,0.00,,,0.17,fowsr,2013-09-13 16:30:00,
2013-09-13 12:35:00,75.0,66.7,29.49,SE,135,3.8,6.9,70,0.00,,,0.17,fowsr,2013-09-13 16:35:00,
2013-09-13 12:45:00,75.6,66.9,29.50,East,90,2.2,7.6,69,0.00,,,0.17,fowsr,2013-09-13 16:45:00,
2013-09-13 12:50:00,75.9,66.6,29.50,NE,45,2.2,4.5,67,0.00,,,0.17,fowsr,2013-09-13 16:50:00,
2013-09-13 12:55:00,76.3,66.9,29.49,SW,225,3.1,5.4,67,0.00,,,0.17,fowsr,2013-09-13 16:55:00,
2013-09-13 13:05:00,76.5,65.4,29.49,South,180,1.6,3.1,62,0.00,,,0.17,fowsr,2013-09-13 17:05:00,
2013-09-13 13:10:00,76.3,64.8,29.48,South,180,6.0,9.8,61,0.00,,,0.17,fowsr,2013-09-13 17:10:00,
2013-09-13 13:15:00,75.9,64.9,29.49,NW,315,2.2,3.8,62,0.00,,,0.17,fowsr,2013-09-13 17:15:00,
2013-09-13 13:20:00,76.1,64.7,29.48,NE,45,4.5,8.3,61,0.00,,,0.17,fowsr,2013-09-13 17:20:00,
2013-09-13 13:25:00,75.4,64.4,29.49,NE,45,2.2,6.0,62,0.00,,,0.17,fowsr,2013-09-13 17:25:00,
2013-09-13 13:30:00,75.0,65.1,29.48,NE,45,1.6,5.4,65,0.00,,,0.17,fowsr,2013-09-13 17:30:00,
2013-09-13 13:35:00,75.2,64.9,29.49,ESE,112,3.8,9.8,64,0.00,,,0.17,fowsr,2013-09-13 17:35:00,
2013-09-13 13:40:00,75.2,64.9,29.49,North,0,2.2,6.9,64,0.00,,,0.17,fowsr,2013-09-13 17:40:00,
2013-09-13 13:45:00,75.7,65.1,29.49,East,90,2.2,3.1,63,0.00,,,0.17,fowsr,2013-09-13 17:45:00,
2013-09-13 13:50:00,75.9,65.2,29.49,East,90,3.8,6.9,63,0.00,,,0.17,fowsr,2013-09-13 17:50:00,
2013-09-13 13:55:00,75.6,65.2,29.49,East,90,3.1,6.0,64,0.00,,,0.17,fowsr,2013-09-13 17:55:00,
2013-09-13 14:00:00,75.7,65.1,29.49,SW,225,2.2,5.4,63,0.00,,,0.17,fowsr,2013-09-13 18:00:00,
2013-09-13 14:05:00,75.9,65.6,29.49,SE,135,6.0,10.7,64,0.00,,,0.17,fowsr,2013-09-13 18:05:00,
2013-09-13 14:10:00,75.2,65.3,29.49,ESE,112,3.8,7.6,65,0.00,,,0.17,fowsr,2013-09-13 18:10:00,
2013-09-13 14:15:00,75.0,65.8,29.48,SE,135,3.1,4.5,67,0.00,,,0.17,fowsr,2013-09-13 18:15:00,
2013-09-13 14:20:00,75.7,65.4,29.49,NE,45,2.2,6.9,64,0.00,,,0.17,fowsr,2013-09-13 18:20:00,
2013-09-13 14:25:00,76.1,63.9,29.49,SW,225,3.1,6.0,59,0.00,,,0.17,fowsr,2013-09-13 18:25:00,
2013-09-13 14:30:00,76.3,64.5,29.49,South,180,6.9,10.7,60,0.00,,,0.17,fowsr,2013-09-13 18:30:00,
2013-09-13 14:35:00,76.5,64.3,29.49,East,90,2.2,5.4,59,0.00,,,0.17,fowsr,2013-09-13 18:35:00,
2013-09-13 14:40:00,76.5,64.6,29.49,SE,135,3.1,7.6,60,0.00,,,0.17,fowsr,2013-09-13 18:40:00,
2013-09-13 14:45:00,76.3,64.5,29.48,East,90,1.6,3.1,60,0.00,,,0.17,fowsr,2013-09-13 18:45:00,
2013-09-13 14:50:00,76.5,65.0,29.48,South,180,2.2,3.1,61,0.00,,,0.17,fowsr,2013-09-13 18:50:00,
2013-09-13 14:55:00,76.6,65.9,29.48,East,90,2.2,4.5,63,0.00,,,0.17,fowsr,2013-09-13 18:55:00,
2013-09-13 15:00:00,76.8,65.3,29.48,SE,135,2.2,4.5,61,0.00,,,0.17,fowsr,2013-09-13 19:00:00,
2013-09-13 15:05:00,77.2,66.0,29.48,SE,135,0.7,1.6,62,0.00,,,0.17,fowsr,2013-09-13 19:05:00,
2013-09-13 15:10:00,77.9,66.0,29.48,NW,315,3.1,6.9,60,0.00,,,0.17,fowsr,2013-09-13 19:10:00,
2013-09-13 15:15:00,77.5,66.0,29.48,SE,135,1.6,3.1,61,0.00,,,0.17,fowsr,2013-09-13 19:15:00,
2013-09-13 15:20:00,77.7,65.0,29.48,East,90,3.8,5.4,58,0.00,,,0.17,fowsr,2013-09-13 19:20:00,
2013-09-13 15:25:00,78.3,64.8,29.48,East,90,3.1,7.6,56,0.00,,,0.17,fowsr,2013-09-13 19:25:00,
2013-09-13 15:30:00,78.4,64.5,29.48,NE,45,3.1,5.4,55,0.00,,,0.17,fowsr,2013-09-13 19:30:00,
2013-09-13 15:35:00,78.6,63.9,29.49,ENE,67,3.8,10.7,53,0.00,,,0.17,fowsr,2013-09-13 19:35:00,
2013-09-13 15:40:00,78.6,63.9,29.48,SW,225,3.8,5.4,53,0.00,,,0.17,fowsr,2013-09-13 19:40:00,
2013-09-13 15:50:00,78.8,63.6,29.48,North,0,3.1,6.9,52,0.00,,,0.17,fowsr,2013-09-13 19:50:00,
2013-09-13 15:55:00,78.8,63.2,29.49,NE,45,3.1,6.9,51,0.00,,,0.17,fowsr,2013-09-13 19:55:00,
2013-09-13 16:05:00,79.0,63.3,29.48,SE,135,3.1,6.9,51,0.00,,,0.17,fowsr,2013-09-13 20:05:00,
2013-09-13 16:10:00,78.6,63.9,29.48,NE,45,1.6,3.8,53,0.00,,,0.17,fowsr,2013-09-13 20:10:00,
2013-09-13 16:15:00,78.6,64.3,29.48,NE,45,2.2,4.5,54,0.00,,,0.17,fowsr,2013-09-13 20:15:00,
2013-09-13 16:20:00,78.6,64.3,29.49,East,90,3.1,7.6,54,0.00,,,0.17,fowsr,2013-09-13 20:20:00,
2013-09-13 16:30:00,78.4,63.7,29.49,East,90,3.8,6.0,53,0.00,,,0.17,fowsr,2013-09-13 20:30:00,
2013-09-13 16:35:00,78.4,64.1,29.49,SE,135,1.6,3.1,54,0.00,,,0.17,fowsr,2013-09-13 20:35:00,
2013-09-13 16:40:00,78.6,64.3,29.48,WNW,292,1.6,3.8,54,0.00,,,0.17,fowsr,2013-09-13 20:40:00,
2013-09-13 16:45:00,78.8,63.6,29.49,SE,135,3.1,5.4,52,0.00,,,0.17,fowsr,2013-09-13 20:45:00,
2013-09-13 16:50:00,78.6,63.9,29.49,North,0,2.2,3.8,53,0.00,,,0.17,fowsr,2013-09-13 20:50:00,
2013-09-13 16:55:00,78.6,62.6,29.49,South,180,2.2,3.8,50,0.00,,,0.17,fowsr,2013-09-13 20:55:00,
2013-09-13 17:00:00,78.6,62.6,29.49,South,180,3.1,5.4,50,0.00,,,0.17,fowsr,2013-09-13 21:00:00,
2013-09-13 17:05:00,78.6,63.4,29.49,East,90,1.6,3.1,52,0.00,,,0.17,fowsr,2013-09-13 21:05:00,
2013-09-13 17:10:00,78.6,63.9,29.49,NW,315,0.7,3.1,53,0.00,,,0.17,fowsr,2013-09-13 21:10:00,
2013-09-13 17:15:00,78.6,63.9,29.49,SSE,157,2.2,6.0,53,0.00,,,0.17,fowsr,2013-09-13 21:15:00,
2013-09-13 17:20:00,78.4,63.7,29.49,East,90,3.1,6.0,53,0.00,,,0.17,fowsr,2013-09-13 21:20:00,
2013-09-13 17:30:00,78.3,62.7,29.49,NE,45,3.1,4.5,51,0.00,,,0.17,fowsr,2013-09-13 21:30:00,
2013-09-13 17:35:00,77.9,62.4,29.50,NE,45,3.1,6.0,51,0.00,,,0.17,fowsr,2013-09-13 21:35:00,
2013-09-13 17:40:00,77.7,61.8,29.50,North,0,1.6,3.1,50,0.00,,,0.17,fowsr,2013-09-13 21:40:00,
2013-09-13 17:45:00,77.5,62.5,29.50,South,180,3.1,6.9,52,0.00,,,0.17,fowsr,2013-09-13 21:45:00,
2013-09-13 17:50:00,77.2,63.0,29.50,South,180,4.5,11.4,54,0.00,,,0.17,fowsr,2013-09-13 21:50:00,
2013-09-13 17:55:00,77.0,63.2,29.50,ESE,112,3.8,9.2,55,0.00,,,0.17,fowsr,2013-09-13 21:55:00,
2013-09-13 18:00:00,76.8,63.0,29.50,North,0,3.1,7.6,55,0.00,,,0.17,fowsr,2013-09-13 22:00:00,
2013-09-13 18:05:00,76.6,62.5,29.51,WNW,292,3.1,4.5,54,0.00,,,0.17,fowsr,2013-09-13 22:05:00,
2013-09-13 18:10:00,76.3,62.6,29.50,SE,135,3.8,8.3,55,0.00,,,0.17,fowsr,2013-09-13 22:10:00,
2013-09-13 18:15:00,75.9,61.8,29.50,North,0,2.2,7.6,54,0.00,,,0.17,fowsr,2013-09-13 22:15:00,
2013-09-13 18:20:00,75.7,61.7,29.50,South,180,4.5,9.8,54,0.00,,,0.17,fowsr,2013-09-13 22:20:00,
2013-09-13 18:25:00,75.4,60.9,29.50,NE,45,2.2,3.8,53,0.00,,,0.17,fowsr,2013-09-13 22:25:00,
2013-09-13 18:30:00,75.2,59.5,29.51,WNW,292,3.1,5.4,50,0.00,,,0.17,fowsr,2013-09-13 22:30:00,
2013-09-13 18:35:00,75.0,59.8,29.51,North,2880,3.1,6.9,51,0.00,,,0.17,fowsr,2013-09-13 22:35:00,
2013-09-13 18:40:00,74.8,60.8,29.51,SE,135,2.2,6.9,54,0.00,,,0.17,fowsr,2013-09-13 22:40:00,
2013-09-13 18:45:00,74.3,59.5,29.51,SSW,202,3.8,9.8,52,0.00,,,0.17,fowsr,2013-09-13 22:45:00,
2013-09-13 18:50:00,73.9,59.6,29.51,South,180,3.8,8.3,53,0.00,,,0.17,fowsr,2013-09-13 22:50:00,
2013-09-13 18:55:00,73.6,59.3,29.52,East,90,6.9,9.2,53,0.00,,,0.17,fowsr,2013-09-13 22:55:00,
2013-09-13 19:00:00,73.4,59.5,29.52,SE,135,7.6,11.4,54,0.00,,,0.17,fowsr,2013-09-13 23:00:00,
2013-09-13 19:05:00,73.2,58.1,29.52,South,180,3.1,7.6,51,0.00,,,0.17,fowsr,2013-09-13 23:05:00,
2013-09-13 19:10:00,73.0,58.8,29.53,SW,225,6.0,9.8,53,0.00,,,0.17,fowsr,2013-09-13 23:10:00,
2013-09-13 19:15:00,72.9,58.2,29.54,NE,45,3.1,6.0,52,0.00,,,0.17,fowsr,2013-09-13 23:15:00,
2013-09-13 19:20:00,72.9,58.2,29.53,East,90,2.2,5.4,52,0.00,,,0.17,fowsr,2013-09-13 23:20:00,
2013-09-13 19:25:00,72.7,58.5,29.54,South,180,6.9,11.4,53,0.00,,,0.17,fowsr,2013-09-13 23:25:00,
2013-09-13 19:30:00,72.7,58.9,29.54,South,180,2.2,3.1,54,0.00,,,0.17,fowsr,2013-09-13 23:30:00,
2013-09-13 19:35:00,72.5,58.7,29.54,SW,225,3.1,6.0,54,0.00,,,0.17,fowsr,2013-09-13 23:35:00,
2013-09-13 19:40:00,72.5,59.1,29.55,NE,45,3.1,7.6,55,0.00,,,0.17,fowsr,2013-09-13 23:40:00,
2013-09-13 19:45:00,72.5,59.1,29.55,SW,225,3.8,6.0,55,0.00,,,0.17,fowsr,2013-09-13 23:45:00,
2013-09-13 19:50:00,72.5,58.3,29.55,NW,315,1.6,3.1,53,0.00,,,0.17,fowsr,2013-09-13 23:50:00,
2013-09-13 19:55:00,72.5,58.7,29.55,NE,45,0.7,1.6,54,0.00,,,0.17,fowsr,2013-09-13 23:55:00,
2013-09-13 20:00:00,72.5,59.1,29.56,East,90,0.7,2.2,55,0.00,,,0.17,fowsr,2013-09-14 00:00:00,
2013-09-13 20:05:00,72.3,58.5,29.56,South,180,1.6,3.8,54,0.00,,,0.17,fowsr,2013-09-14 00:05:00,
2013-09-13 20:10:00,72.3,58.1,29.56,NE,45,3.1,7.6,53,0.00,,,0.17,fowsr,2013-09-14 00:10:00,
2013-09-13 20:20:00,72.1,59.1,29.57,SW,225,2.2,6.0,56,0.00,,,0.17,fowsr,2013-09-14 00:20:00,
2013-09-13 20:25:00,72.0,59.0,29.58,South,180,3.1,4.5,56,0.00,,,0.17,fowsr,2013-09-14 00:25:00,
2013-09-13 20:30:00,71.6,59.0,29.58,South,180,6.9,10.7,57,0.00,,,0.17,fowsr,2013-09-14 00:30:00,
2013-09-13 20:35:00,71.4,59.6,29.58,South,180,2.2,3.8,59,0.00,,,0.17,fowsr,2013-09-14 00:35:00,
2013-09-13 20:40:00,71.2,59.4,29.58,SW,225,3.8,6.9,59,0.00,,,0.17,fowsr,2013-09-14 00:40:00,
2013-09-13 20:45:00,71.1,59.6,29.58,South,180,3.8,8.3,60,0.00,,,0.17,fowsr,2013-09-14 00:45:00,
2013-09-13 20:50:00,70.9,59.1,29.58,South,180,2.2,3.8,59,0.00,,,0.17,fowsr,2013-09-14 00:50:00,
2013-09-13 20:55:00,70.9,59.5,29.58,SSW,202,1.6,3.1,60,0.00,,,0.17,fowsr,2013-09-14 00:55:00,
2013-09-13 21:00:00,70.7,59.3,29.58,South,180,5.4,9.2,60,0.00,,,0.17,fowsr,2013-09-14 01:00:00,
2013-09-13 21:05:00,70.7,59.3,29.59,South,180,3.1,4.5,60,0.00,,,0.15,fowsr,2013-09-14 01:05:00,
2013-09-13 21:10:00,70.5,59.5,29.59,SW,225,1.6,3.1,61,0.00,,,0.12,fowsr,2013-09-14 01:10:00,
2013-09-13 21:15:00,70.3,59.0,29.59,South,180,3.1,6.0,60,0.00,,,0.11,fowsr,2013-09-14 01:15:00,
2013-09-13 21:20:00,70.2,58.8,29.59,SW,225,3.1,5.4,60,0.00,,,0.11,fowsr,2013-09-14 01:20:00,
2013-09-13 21:25:00,70.2,58.4,29.59,South,180,5.4,7.6,59,0.00,,,0.09,fowsr,2013-09-14 01:25:00,
2013-09-13 21:30:00,70.2,58.8,29.59,South,180,3.1,4.5,60,0.00,,,0.09,fowsr,2013-09-14 01:30:00,
2013-09-13 21:35:00,70.2,58.8,29.59,WSW,247,3.8,6.0,60,0.00,,,0.08,fowsr,2013-09-14 01:35:00,
2013-09-13 21:40:00,70.0,58.3,29.59,South,180,3.8,7.6,59,0.00,,,0.07,fowsr,2013-09-14 01:40:00,
2013-09-13 21:45:00,70.2,58.4,29.60,North,0,2.2,5.4,59,0.00,,,0.07,fowsr,2013-09-14 01:45:00,
2013-09-13 21:50:00,70.2,58.4,29.59,SE,135,2.2,5.4,59,0.00,,,0.07,fowsr,2013-09-14 01:50:00,
2013-09-13 21:55:00,70.2,58.4,29.59,WSW,247,5.4,8.3,59,0.00,,,0.06,fowsr,2013-09-14 01:55:00,
2013-09-13 22:00:00,70.0,58.6,29.60,SW,225,1.6,3.1,60,0.00,,,0.06,fowsr,2013-09-14 02:00:00,
2013-09-13 22:05:00,69.8,58.5,29.60,NW,315,1.6,3.8,60,0.00,,,0.05,fowsr,2013-09-14 02:05:00,
2013-09-13 22:10:00,69.6,58.3,29.60,SW,225,6.0,8.3,60,0.00,,,0.05,fowsr,2013-09-14 02:10:00,
2013-09-13 22:15:00,69.4,58.1,29.60,SW,225,5.4,7.6,60,0.00,,,0.05,fowsr,2013-09-14 02:15:00,
2013-09-13 22:20:00,69.4,58.1,29.60,SE,135,2.2,4.5,60,0.00,,,0.05,fowsr,2013-09-14 02:20:00,
2013-09-13 22:25:00,69.4,58.1,29.60,SW,225,3.8,5.4,60,0.00,,,0.04,fowsr,2013-09-14 02:25:00,
2013-09-13 22:30:00,69.4,57.8,29.61,SW,225,5.4,7.6,59,0.00,,,0.04,fowsr,2013-09-14 02:30:00,
2013-09-13 22:35:00,69.4,57.4,29.61,SW,225,5.4,9.2,58,0.00,,,0.04,fowsr,2013-09-14 02:35:00,
2013-09-13 22:40:00,69.4,57.4,29.61,South,180,5.4,7.6,58,0.00,,,0.02,fowsr,2013-09-14 02:40:00,
2013-09-13 22:45:00,69.3,57.6,29.61,South,180,5.4,9.2,59,0.00,,,0.02,fowsr,2013-09-14 02:45:00,
2013-09-13 22:50:00,69.3,57.6,29.61,SW,225,5.4,8.3,59,0.00,,,0.02,fowsr,2013-09-14 02:50:00,
2013-09-13 22:55:00,69.1,57.8,29.61,SSW,202,3.1,4.5,60,0.00,,,0.01,fowsr,2013-09-14 02:55:00,
2013-09-13 23:00:00,68.9,58.0,29.61,SW,225,6.0,8.3,61,0.00,,,0.01,fowsr,2013-09-14 03:00:00,
2013-09-13 23:05:00,68.9,58.0,29.62,NW,315,4.5,7.6,61,0.00,,,0.01,fowsr,2013-09-14 03:05:00,
2013-09-13 23:10:00,68.7,58.2,29.62,SW,225,3.1,5.4,62,0.00,,,0.01,fowsr,2013-09-14 03:10:00,
2013-09-13 23:15:00,68.4,58.2,29.62,South,180,7.6,10.7,63,0.00,,,0.01,fowsr,2013-09-14 03:15:00,
2013-09-13 23:20:00,68.2,58.0,29.62,SW,225,3.8,6.0,63,0.00,,,0.01,fowsr,2013-09-14 03:20:00,
2013-09-13 23:25:00,67.8,58.0,29.62,SW,225,3.1,4.5,64,0.00,,,0.01,fowsr,2013-09-14 03:25:00,
2013-09-13 23:30:00,67.6,57.8,29.63,NW,315,6.0,8.3,64,0.00,,,0.01,fowsr,2013-09-14 03:30:00,
2013-09-13 23:35:00,67.3,57.5,29.63,NW,315,3.8,6.9,64,0.00,,,0.01,fowsr,2013-09-14 03:35:00,
2013-09-13 23:40:00,67.1,57.7,29.62,SE,135,4.5,11.4,65,0.00,,,0.01,fowsr,2013-09-14 03:40:00,
2013-09-13 23:45:00,66.7,57.3,29.62,South,180,6.0,8.3,65,0.00,,,0.01,fowsr,2013-09-14 03:45:00,
2013-09-13 23:50:00,66.7,57.0,29.63,South,180,6.9,9.8,64,0.00,,,0.01,fowsr,2013-09-14 03:50:00,
2013-09-13 23:55:00,66.6,57.1,29.63,WSW,247,3.8,7.6,65,0.00,,,0.01,fowsr,2013-09-14 03:55:00,